sensor_id;sensor_type;location;lat;lon;timestamp;temperature;humidity
15343;DHT22;7771;48.478;8.936;2022-10-16T00:01:23;17.30;99.90
15343;DHT22;7771;48.478;8.936;2022-10-16T00:03:49;17.30;99.90
15343;DHT22;7771;48.478;8.936;2022-10-16T00:06:17;17.30;99.90
15343;DHT22;7771;48.478;8.936;2022-10-16T00:08:43;17.30;99.90
15343;DHT22;7771;48.478;8.936;2022-10-16T00:11:11;17.30;99.90
15343;DHT22;7771;48.478;8.936;2022-10-16T00:13:37;17.30;99.90
15343;DHT22;7771;48.478;8.936;2022-10-16T00:16:03;17.20;99.90
15343;DHT22;7771;48.478;8.936;2022-10-16T00:18:30;17.20;99.90
15343;DHT22;7771;48.478;8.936;2022-10-16T00:21:06;17.20;99.90
15343;DHT22;7771;48.478;8.936;2022-10-16T00:23:31;17.20;99.90
15343;DHT22;7771;48.478;8.936;2022-10-16T00:26:00;17.10;99.90
15343;DHT22;7771;48.478;8.936;2022-10-16T00:28:25;17.10;99.90
15343;DHT22;7771;48.478;8.936;2022-10-16T00:30:52;17.00;99.90
15343;DHT22;7771;48.478;8.936;2022-10-16T00:33:19;17.00;99.90
15343;DHT22;7771;48.478;8.936;2022-10-16T00:35:45;17.00;99.90
15343;DHT22;7771;48.478;8.936;2022-10-16T00:38:12;16.90;99.90
15343;DHT22;7771;48.478;8.936;2022-10-16T00:40:39;16.90;99.90
15343;DHT22;7771;48.478;8.936;2022-10-16T00:43:13;16.90;99.90
15343;DHT22;7771;48.478;8.936;2022-10-16T00:45:39;16.90;99.90
15343;DHT22;7771;48.478;8.936;2022-10-16T00:48:07;16.80;99.90
15343;DHT22;7771;48.478;8.936;2022-10-16T00:50:34;16.80;99.90
15343;DHT22;7771;48.478;8.936;2022-10-16T00:53:01;16.70;99.90
15343;DHT22;7771;48.478;8.936;2022-10-16T00:55:28;16.70;99.90
15343;DHT22;7771;48.478;8.936;2022-10-16T00:57:56;16.70;99.90
15343;DHT22;7771;48.478;8.936;2022-10-16T01:00:24;16.70;99.90
15343;DHT22;7771;48.478;8.936;2022-10-16T01:02:54;16.60;99.90
15343;DHT22;7771;48.478;8.936;2022-10-16T01:05:21;16.60;99.90
15343;DHT22;7771;48.478;8.936;2022-10-16T01:07:54;16.60;99.90
15343;DHT22;7771;48.478;8.936;2022-10-16T01:13:10;16.50;99.90
15343;DHT22;7771;48.478;8.936;2022-10-16T01:15:40;16.50;99.90
15343;DHT22;7771;48.478;8.936;2022-10-16T01:18:08;16.50;99.90
15343;DHT22;7771;48.478;8.936;2022-10-16T01:20:37;16.50;99.90
15343;DHT22;7771;48.478;8.936;2022-10-16T01:23:06;16.50;99.90
15343;DHT22;7771;48.478;8.936;2022-10-16T01:25:56;16.40;99.90
15343;DHT22;7771;48.478;8.936;2022-10-16T01:28:21;16.40;99.90
15343;DHT22;7771;48.478;8.936;2022-10-16T01:30:46;16.30;99.90
15343;DHT22;7771;48.478;8.936;2022-10-16T01:33:17;16.30;99.90
15343;DHT22;7771;48.478;8.936;2022-10-16T01:35:42;16.30;99.90
15343;DHT22;7771;48.478;8.936;2022-10-16T01:40:54;16.30;99.90
15343;DHT22;7771;48.478;8.936;2022-10-16T01:43:20;16.30;99.90
15343;DHT22;7771;48.478;8.936;2022-10-16T01:45:45;16.30;99.90
15343;DHT22;7771;48.478;8.936;2022-10-16T01:48:13;16.20;99.90
15343;DHT22;7771;48.478;8.936;2022-10-16T01:50:40;16.20;99.90
15343;DHT22;7771;48.478;8.936;2022-10-16T01:53:07;16.30;99.90
15343;DHT22;7771;48.478;8.936;2022-10-16T01:55:36;16.20;99.90
15343;DHT22;7771;48.478;8.936;2022-10-16T01:58:01;16.20;99.90
15343;DHT22;7771;48.478;8.936;2022-10-16T02:00:29;16.20;99.90
15343;DHT22;7771;48.478;8.936;2022-10-16T02:02:56;16.20;99.90
15343;DHT22;7771;48.478;8.936;2022-10-16T02:05:32;16.10;99.90
15343;DHT22;7771;48.478;8.936;2022-10-16T02:07:58;16.20;99.90
15343;DHT22;7771;48.478;8.936;2022-10-16T02:10:26;16.20;99.90
15343;DHT22;7771;48.478;8.936;2022-10-16T02:12:55;16.20;99.90
15343;DHT22;7771;48.478;8.936;2022-10-16T02:15:20;16.20;99.90
15343;DHT22;7771;48.478;8.936;2022-10-16T02:17:48;16.10;99.90
15343;DHT22;7771;48.478;8.936;2022-10-16T02:20:15;16.10;99.90
15343;DHT22;7771;48.478;8.936;2022-10-16T02:22:44;16.10;99.90
15343;DHT22;7771;48.478;8.936;2022-10-16T02:25:13;16.10;99.90
15343;DHT22;7771;48.478;8.936;2022-10-16T02:27:41;16.10;99.90
15343;DHT22;7771;48.478;8.936;2022-10-16T02:30:08;16.10;99.90
15343;DHT22;7771;48.478;8.936;2022-10-16T02:32:34;16.10;99.90
15343;DHT22;7771;48.478;8.936;2022-10-16T02:35:00;16.10;99.90
15343;DHT22;7771;48.478;8.936;2022-10-16T02:37:27;16.10;99.90
15343;DHT22;7771;48.478;8.936;2022-10-16T02:39:54;16.10;99.90
15343;DHT22;7771;48.478;8.936;2022-10-16T02:42:20;16.00;99.90
15343;DHT22;7771;48.478;8.936;2022-10-16T02:44:47;16.00;99.90
15343;DHT22;7771;48.478;8.936;2022-10-16T02:47:13;16.10;99.90
15343;DHT22;7771;48.478;8.936;2022-10-16T02:49:40;16.10;99.90
15343;DHT22;7771;48.478;8.936;2022-10-16T02:52:06;16.00;99.90
15343;DHT22;7771;48.478;8.936;2022-10-16T02:54:33;16.00;99.90
15343;DHT22;7771;48.478;8.936;2022-10-16T02:57:00;16.00;99.90
15343;DHT22;7771;48.478;8.936;2022-10-16T02:59:27;16.00;99.90
15343;DHT22;7771;48.478;8.936;2022-10-16T03:01:54;16.00;99.90
15343;DHT22;7771;48.478;8.936;2022-10-16T03:04:22;16.00;99.90
15343;DHT22;7771;48.478;8.936;2022-10-16T03:06:49;15.90;99.90
15343;DHT22;7771;48.478;8.936;2022-10-16T03:09:16;16.00;99.90
15343;DHT22;7771;48.478;8.936;2022-10-16T03:11:42;15.90;99.90
15343;DHT22;7771;48.478;8.936;2022-10-16T03:14:10;15.90;99.90
15343;DHT22;7771;48.478;8.936;2022-10-16T03:16:37;15.90;99.90
15343;DHT22;7771;48.478;8.936;2022-10-16T03:19:04;15.90;99.90
15343;DHT22;7771;48.478;8.936;2022-10-16T03:21:32;15.90;99.90
15343;DHT22;7771;48.478;8.936;2022-10-16T03:23:59;15.90;99.90
15343;DHT22;7771;48.478;8.936;2022-10-16T03:26:26;15.90;99.90
15343;DHT22;7771;48.478;8.936;2022-10-16T03:28:54;15.90;99.90
15343;DHT22;7771;48.478;8.936;2022-10-16T03:31:21;15.90;99.90
15343;DHT22;7771;48.478;8.936;2022-10-16T03:33:48;15.80;99.90
15343;DHT22;7771;48.478;8.936;2022-10-16T03:36:14;15.80;99.90
15343;DHT22;7771;48.478;8.936;2022-10-16T03:38:41;15.80;99.90
15343;DHT22;7771;48.478;8.936;2022-10-16T03:41:07;15.80;99.90
15343;DHT22;7771;48.478;8.936;2022-10-16T03:43:34;15.80;99.90
15343;DHT22;7771;48.478;8.936;2022-10-16T03:46:01;15.80;99.90
15343;DHT22;7771;48.478;8.936;2022-10-16T03:48:28;15.80;99.90
15343;DHT22;7771;48.478;8.936;2022-10-16T03:50:55;15.70;99.90
15343;DHT22;7771;48.478;8.936;2022-10-16T03:53:22;15.70;99.90
15343;DHT22;7771;48.478;8.936;2022-10-16T03:55:49;15.70;99.90
15343;DHT22;7771;48.478;8.936;2022-10-16T03:58:15;15.70;99.90
15343;DHT22;7771;48.478;8.936;2022-10-16T04:00:43;15.70;99.90
15343;DHT22;7771;48.478;8.936;2022-10-16T04:03:10;15.70;99.90
15343;DHT22;7771;48.478;8.936;2022-10-16T04:05:36;15.70;99.90
15343;DHT22;7771;48.478;8.936;2022-10-16T04:08:03;15.70;99.90
15343;DHT22;7771;48.478;8.936;2022-10-16T04:10:29;15.70;99.90
15343;DHT22;7771;48.478;8.936;2022-10-16T04:12:56;15.70;99.90
15343;DHT22;7771;48.478;8.936;2022-10-16T04:15:23;15.70;99.90
15343;DHT22;7771;48.478;8.936;2022-10-16T04:17:49;15.60;99.90
15343;DHT22;7771;48.478;8.936;2022-10-16T04:20:16;15.60;99.90
15343;DHT22;7771;48.478;8.936;2022-10-16T04:22:43;15.60;99.90
15343;DHT22;7771;48.478;8.936;2022-10-16T04:25:09;15.60;99.90
15343;DHT22;7771;48.478;8.936;2022-10-16T04:27:36;15.60;99.90
15343;DHT22;7771;48.478;8.936;2022-10-16T04:30:03;15.60;99.90
15343;DHT22;7771;48.478;8.936;2022-10-16T04:32:29;15.60;99.90
15343;DHT22;7771;48.478;8.936;2022-10-16T04:34:57;15.60;99.90
15343;DHT22;7771;48.478;8.936;2022-10-16T04:37:24;15.60;99.90
15343;DHT22;7771;48.478;8.936;2022-10-16T04:39:52;15.60;99.90
15343;DHT22;7771;48.478;8.936;2022-10-16T04:42:19;15.60;99.90
15343;DHT22;7771;48.478;8.936;2022-10-16T04:44:45;15.60;99.90
15343;DHT22;7771;48.478;8.936;2022-10-16T04:47:12;15.60;99.90
15343;DHT22;7771;48.478;8.936;2022-10-16T04:49:38;15.60;99.90
15343;DHT22;7771;48.478;8.936;2022-10-16T04:52:05;15.60;99.90
15343;DHT22;7771;48.478;8.936;2022-10-16T04:54:31;15.50;99.90
15343;DHT22;7771;48.478;8.936;2022-10-16T04:56:59;15.50;99.90
15343;DHT22;7771;48.478;8.936;2022-10-16T04:59:26;15.50;99.90
15343;DHT22;7771;48.478;8.936;2022-10-16T05:01:52;15.50;99.90
15343;DHT22;7771;48.478;8.936;2022-10-16T05:04:20;15.50;99.90
15343;DHT22;7771;48.478;8.936;2022-10-16T05:06:47;15.50;99.90
15343;DHT22;7771;48.478;8.936;2022-10-16T05:09:14;15.40;99.90
15343;DHT22;7771;48.478;8.936;2022-10-16T05:11:42;15.40;99.90
15343;DHT22;7771;48.478;8.936;2022-10-16T05:14:09;15.40;99.90
15343;DHT22;7771;48.478;8.936;2022-10-16T05:16:36;15.30;99.90
15343;DHT22;7771;48.478;8.936;2022-10-16T05:19:03;15.40;99.90
15343;DHT22;7771;48.478;8.936;2022-10-16T05:21:30;15.30;99.90
15343;DHT22;7771;48.478;8.936;2022-10-16T05:23:56;15.30;99.90
15343;DHT22;7771;48.478;8.936;2022-10-16T05:26:23;15.30;99.90
15343;DHT22;7771;48.478;8.936;2022-10-16T05:28:49;15.30;99.90
15343;DHT22;7771;48.478;8.936;2022-10-16T05:31:16;15.20;99.90
15343;DHT22;7771;48.478;8.936;2022-10-16T05:33:43;15.30;99.90
15343;DHT22;7771;48.478;8.936;2022-10-16T05:36:10;15.20;99.90
15343;DHT22;7771;48.478;8.936;2022-10-16T05:38:37;15.20;99.90
15343;DHT22;7771;48.478;8.936;2022-10-16T05:41:04;15.20;99.90
15343;DHT22;7771;48.478;8.936;2022-10-16T05:43:31;15.20;99.90
15343;DHT22;7771;48.478;8.936;2022-10-16T05:46:00;15.20;99.90
15343;DHT22;7771;48.478;8.936;2022-10-16T05:48:26;15.20;99.90
15343;DHT22;7771;48.478;8.936;2022-10-16T05:51:00;15.20;99.90
15343;DHT22;7771;48.478;8.936;2022-10-16T05:53:27;15.20;99.90
15343;DHT22;7771;48.478;8.936;2022-10-16T05:55:54;15.20;99.90
15343;DHT22;7771;48.478;8.936;2022-10-16T05:58:21;15.20;99.90
15343;DHT22;7771;48.478;8.936;2022-10-16T06:00:56;15.20;99.90
15343;DHT22;7771;48.478;8.936;2022-10-16T06:03:22;15.20;99.90
15343;DHT22;7771;48.478;8.936;2022-10-16T06:05:49;15.20;99.90
15343;DHT22;7771;48.478;8.936;2022-10-16T06:08:15;15.30;99.90
15343;DHT22;7771;48.478;8.936;2022-10-16T06:10:43;15.30;99.90
15343;DHT22;7771;48.478;8.936;2022-10-16T06:13:10;15.20;99.90
15343;DHT22;7771;48.478;8.936;2022-10-16T06:15:37;15.20;99.90
15343;DHT22;7771;48.478;8.936;2022-10-16T06:18:04;15.30;99.90
15343;DHT22;7771;48.478;8.936;2022-10-16T06:20:31;15.20;99.90
15343;DHT22;7771;48.478;8.936;2022-10-16T06:22:59;15.30;99.90
15343;DHT22;7771;48.478;8.936;2022-10-16T06:25:25;15.30;99.90
15343;DHT22;7771;48.478;8.936;2022-10-16T06:27:52;15.40;99.90
15343;DHT22;7771;48.478;8.936;2022-10-16T06:30:19;15.40;99.90
15343;DHT22;7771;48.478;8.936;2022-10-16T06:32:47;15.40;99.90
15343;DHT22;7771;48.478;8.936;2022-10-16T06:35:14;15.50;99.90
15343;DHT22;7771;48.478;8.936;2022-10-16T06:37:41;15.50;99.90
15343;DHT22;7771;48.478;8.936;2022-10-16T06:40:09;15.60;99.90
15343;DHT22;7771;48.478;8.936;2022-10-16T06:42:35;15.60;99.90
15343;DHT22;7771;48.478;8.936;2022-10-16T06:45:02;15.70;99.90
15343;DHT22;7771;48.478;8.936;2022-10-16T06:47:29;15.70;99.90
15343;DHT22;7771;48.478;8.936;2022-10-16T06:49:56;15.80;99.90
15343;DHT22;7771;48.478;8.936;2022-10-16T06:52:23;15.80;99.90
15343;DHT22;7771;48.478;8.936;2022-10-16T06:54:49;15.90;99.90
15343;DHT22;7771;48.478;8.936;2022-10-16T06:57:16;15.90;99.90
15343;DHT22;7771;48.478;8.936;2022-10-16T06:59:42;15.90;99.90
15343;DHT22;7771;48.478;8.936;2022-10-16T07:02:09;16.00;99.90
15343;DHT22;7771;48.478;8.936;2022-10-16T07:04:36;15.90;99.90
15343;DHT22;7771;48.478;8.936;2022-10-16T07:07:02;16.00;99.90
15343;DHT22;7771;48.478;8.936;2022-10-16T07:09:29;16.00;99.90
15343;DHT22;7771;48.478;8.936;2022-10-16T07:11:55;16.10;99.90
15343;DHT22;7771;48.478;8.936;2022-10-16T07:14:23;16.10;99.90
15343;DHT22;7771;48.478;8.936;2022-10-16T07:16:50;16.10;99.90
15343;DHT22;7771;48.478;8.936;2022-10-16T07:19:17;16.20;99.90
15343;DHT22;7771;48.478;8.936;2022-10-16T07:21:45;16.20;99.90
15343;DHT22;7771;48.478;8.936;2022-10-16T07:24:13;16.20;99.90
15343;DHT22;7771;48.478;8.936;2022-10-16T07:26:40;16.30;99.90
15343;DHT22;7771;48.478;8.936;2022-10-16T07:29:11;16.30;99.90
15343;DHT22;7771;48.478;8.936;2022-10-16T07:31:34;16.40;99.90
15343;DHT22;7771;48.478;8.936;2022-10-16T07:34:02;16.40;99.90
15343;DHT22;7771;48.478;8.936;2022-10-16T07:36:29;16.50;99.90
15343;DHT22;7771;48.478;8.936;2022-10-16T07:38:55;16.50;99.90
15343;DHT22;7771;48.478;8.936;2022-10-16T07:41:22;16.60;99.90
15343;DHT22;7771;48.478;8.936;2022-10-16T07:43:50;16.60;99.90
15343;DHT22;7771;48.478;8.936;2022-10-16T07:46:16;16.70;99.90
15343;DHT22;7771;48.478;8.936;2022-10-16T07:48:42;16.80;99.90
15343;DHT22;7771;48.478;8.936;2022-10-16T07:51:09;16.90;99.90
15343;DHT22;7771;48.478;8.936;2022-10-16T07:53:35;16.90;99.90
15343;DHT22;7771;48.478;8.936;2022-10-16T07:56:03;17.00;99.90
15343;DHT22;7771;48.478;8.936;2022-10-16T07:58:29;17.10;99.90
15343;DHT22;7771;48.478;8.936;2022-10-16T08:00:55;17.20;99.90
15343;DHT22;7771;48.478;8.936;2022-10-16T08:03:22;16.60;99.90
15343;DHT22;7771;48.478;8.936;2022-10-16T08:05:48;17.30;99.90
15343;DHT22;7771;48.478;8.936;2022-10-16T08:08:16;17.30;99.90
15343;DHT22;7771;48.478;8.936;2022-10-16T08:10:43;17.40;99.90
15343;DHT22;7771;48.478;8.936;2022-10-16T08:13:10;17.40;99.90
15343;DHT22;7771;48.478;8.936;2022-10-16T08:15:38;17.40;99.90
15343;DHT22;7771;48.478;8.936;2022-10-16T08:18:05;17.50;99.90
15343;DHT22;7771;48.478;8.936;2022-10-16T08:20:33;17.50;99.90
15343;DHT22;7771;48.478;8.936;2022-10-16T08:23:00;17.60;99.90
15343;DHT22;7771;48.478;8.936;2022-10-16T08:25:27;17.70;99.90
15343;DHT22;7771;48.478;8.936;2022-10-16T08:27:53;17.80;99.90
15343;DHT22;7771;48.478;8.936;2022-10-16T08:30:20;17.90;99.90
15343;DHT22;7771;48.478;8.936;2022-10-16T08:32:46;17.90;99.90
15343;DHT22;7771;48.478;8.936;2022-10-16T08:35:13;17.90;99.90
15343;DHT22;7771;48.478;8.936;2022-10-16T08:37:40;17.90;99.90
15343;DHT22;7771;48.478;8.936;2022-10-16T08:40:11;18.00;99.90
15343;DHT22;7771;48.478;8.936;2022-10-16T08:42:44;18.00;99.90
15343;DHT22;7771;48.478;8.936;2022-10-16T08:45:14;18.10;99.90
15343;DHT22;7771;48.478;8.936;2022-10-16T08:47:43;18.20;99.90
15343;DHT22;7771;48.478;8.936;2022-10-16T08:52:34;18.20;99.90
15343;DHT22;7771;48.478;8.936;2022-10-16T08:54:59;18.20;99.90
15343;DHT22;7771;48.478;8.936;2022-10-16T08:57:26;18.20;99.90
15343;DHT22;7771;48.478;8.936;2022-10-16T08:59:54;18.30;99.90
15343;DHT22;7771;48.478;8.936;2022-10-16T09:02:26;18.30;99.90
15343;DHT22;7771;48.478;8.936;2022-10-16T09:05:03;18.30;99.90
15343;DHT22;7771;48.478;8.936;2022-10-16T09:07:32;18.40;99.90
15343;DHT22;7771;48.478;8.936;2022-10-16T09:10:10;18.60;99.90
15343;DHT22;7771;48.478;8.936;2022-10-16T09:12:54;18.70;99.90
15343;DHT22;7771;48.478;8.936;2022-10-16T09:15:35;18.90;99.90
15343;DHT22;7771;48.478;8.936;2022-10-16T09:18:12;19.20;99.90
15343;DHT22;7771;48.478;8.936;2022-10-16T09:23:17;19.40;99.90
15343;DHT22;7771;48.478;8.936;2022-10-16T09:25:45;19.50;99.90
15343;DHT22;7771;48.478;8.936;2022-10-16T09:28:11;19.50;99.90
15343;DHT22;7771;48.478;8.936;2022-10-16T09:30:37;19.90;99.90
15343;DHT22;7771;48.478;8.936;2022-10-16T09:33:05;20.10;99.90
15343;DHT22;7771;48.478;8.936;2022-10-16T09:35:39;20.30;99.90
15343;DHT22;7771;48.478;8.936;2022-10-16T09:38:05;20.40;99.90
15343;DHT22;7771;48.478;8.936;2022-10-16T09:40:36;20.40;99.90
15343;DHT22;7771;48.478;8.936;2022-10-16T09:45:34;20.40;99.90
15343;DHT22;7771;48.478;8.936;2022-10-16T09:48:08;20.30;99.90
15343;DHT22;7771;48.478;8.936;2022-10-16T09:50:28;20.30;99.90
15343;DHT22;7771;48.478;8.936;2022-10-16T09:53:03;20.20;99.90
15343;DHT22;7771;48.478;8.936;2022-10-16T09:55:29;20.20;99.90
15343;DHT22;7771;48.478;8.936;2022-10-16T09:57:55;20.20;99.90
15343;DHT22;7771;48.478;8.936;2022-10-16T10:00:23;20.10;99.90
15343;DHT22;7771;48.478;8.936;2022-10-16T10:02:50;20.10;99.90
15343;DHT22;7771;48.478;8.936;2022-10-16T10:05:20;20.10;99.90
15343;DHT22;7771;48.478;8.936;2022-10-16T10:07:45;20.20;99.90
15343;DHT22;7771;48.478;8.936;2022-10-16T10:10:20;20.30;99.90
15343;DHT22;7771;48.478;8.936;2022-10-16T10:12:45;20.30;99.90
15343;DHT22;7771;48.478;8.936;2022-10-16T10:15:12;20.60;99.90
15343;DHT22;7771;48.478;8.936;2022-10-16T10:17:47;20.80;99.90
15343;DHT22;7771;48.478;8.936;2022-10-16T10:20:31;21.10;99.90
15343;DHT22;7771;48.478;8.936;2022-10-16T10:22:57;21.40;99.90
15343;DHT22;7771;48.478;8.936;2022-10-16T10:25:34;21.80;99.90
15343;DHT22;7771;48.478;8.936;2022-10-16T10:30:47;22.60;99.90
15343;DHT22;7771;48.478;8.936;2022-10-16T10:33:18;22.80;99.90
15343;DHT22;7771;48.478;8.936;2022-10-16T10:35:43;22.80;99.90
15343;DHT22;7771;48.478;8.936;2022-10-16T10:38:27;23.00;99.90
15343;DHT22;7771;48.478;8.936;2022-10-16T10:40:56;23.20;99.90
15343;DHT22;7771;48.478;8.936;2022-10-16T10:44:50;23.30;99.90
15343;DHT22;7771;48.478;8.936;2022-10-16T10:46:25;23.30;99.90
15343;DHT22;7771;48.478;8.936;2022-10-16T10:48:52;23.30;99.90
15343;DHT22;7771;48.478;8.936;2022-10-16T10:54:13;23.30;99.90
15343;DHT22;7771;48.478;8.936;2022-10-16T10:57:20;23.50;99.90
15343;DHT22;7771;48.478;8.936;2022-10-16T10:59:27;23.50;99.90
15343;DHT22;7771;48.478;8.936;2022-10-16T11:01:56;23.80;99.90
15343;DHT22;7771;48.478;8.936;2022-10-16T11:04:34;24.00;99.90
15343;DHT22;7771;48.478;8.936;2022-10-16T11:07:05;24.00;99.90
15343;DHT22;7771;48.478;8.936;2022-10-16T11:09:36;24.20;99.90
15343;DHT22;7771;48.478;8.936;2022-10-16T11:12:08;24.30;99.90
15343;DHT22;7771;48.478;8.936;2022-10-16T11:14:36;24.30;99.90
15343;DHT22;7771;48.478;8.936;2022-10-16T11:17:04;24.30;99.90
15343;DHT22;7771;48.478;8.936;2022-10-16T11:19:35;24.40;99.90
15343;DHT22;7771;48.478;8.936;2022-10-16T11:22:04;24.40;99.90
15343;DHT22;7771;48.478;8.936;2022-10-16T11:24:35;24.40;99.90
15343;DHT22;7771;48.478;8.936;2022-10-16T11:27:00;24.60;99.90
15343;DHT22;7771;48.478;8.936;2022-10-16T11:29:28;24.60;99.90
15343;DHT22;7771;48.478;8.936;2022-10-16T11:32:00;24.70;99.90
15343;DHT22;7771;48.478;8.936;2022-10-16T11:37:12;24.80;99.90
15343;DHT22;7771;48.478;8.936;2022-10-16T11:39:38;24.90;99.90
15343;DHT22;7771;48.478;8.936;2022-10-16T11:42:10;25.00;99.90
15343;DHT22;7771;48.478;8.936;2022-10-16T11:44:41;25.00;99.90
15343;DHT22;7771;48.478;8.936;2022-10-16T11:47:10;25.00;99.90
15343;DHT22;7771;48.478;8.936;2022-10-16T11:49:34;25.10;99.90
15343;DHT22;7771;48.478;8.936;2022-10-16T11:52:15;25.10;99.90
15343;DHT22;7771;48.478;8.936;2022-10-16T11:57:22;25.20;99.90
15343;DHT22;7771;48.478;8.936;2022-10-16T11:59:53;25.30;99.90
15343;DHT22;7771;48.478;8.936;2022-10-16T12:02:33;25.30;99.50
15343;DHT22;7771;48.478;8.936;2022-10-16T12:05:39;25.30;99.70
15343;DHT22;7771;48.478;8.936;2022-10-16T12:08:18;25.30;99.70
15343;DHT22;7771;48.478;8.936;2022-10-16T12:10:28;25.40;99.20
15343;DHT22;7771;48.478;8.936;2022-10-16T12:12:54;25.30;99.40
15343;DHT22;7771;48.478;8.936;2022-10-16T12:15:22;25.40;99.40
15343;DHT22;7771;48.478;8.936;2022-10-16T12:17:48;25.40;98.80
15343;DHT22;7771;48.478;8.936;2022-10-16T12:20:29;25.40;98.80
15343;DHT22;7771;48.478;8.936;2022-10-16T12:22:55;25.30;98.80
15343;DHT22;7771;48.478;8.936;2022-10-16T12:25:26;25.30;99.20
15343;DHT22;7771;48.478;8.936;2022-10-16T12:27:57;25.40;99.20
15343;DHT22;7771;48.478;8.936;2022-10-16T12:30:23;25.50;98.70
15343;DHT22;7771;48.478;8.936;2022-10-16T12:32:55;25.60;98.70
15343;DHT22;7771;48.478;8.936;2022-10-16T12:35:26;25.60;98.90
15343;DHT22;7771;48.478;8.936;2022-10-16T12:37:52;25.70;98.70
15343;DHT22;7771;48.478;8.936;2022-10-16T12:40:25;25.70;98.30
15343;DHT22;7771;48.478;8.936;2022-10-16T12:42:50;25.70;98.10
15343;DHT22;7771;48.478;8.936;2022-10-16T12:45:27;25.70;98.40
15343;DHT22;7771;48.478;8.936;2022-10-16T12:47:53;25.70;98.30
15343;DHT22;7771;48.478;8.936;2022-10-16T12:50:27;25.60;98.70
15343;DHT22;7771;48.478;8.936;2022-10-16T12:52:53;25.30;98.60
15343;DHT22;7771;48.478;8.936;2022-10-16T12:55:20;25.30;98.70
15343;DHT22;7771;48.478;8.936;2022-10-16T13:00:40;25.30;98.90
15343;DHT22;7771;48.478;8.936;2022-10-16T13:04:29;25.30;99.30
15343;DHT22;7771;48.478;8.936;2022-10-16T13:06:20;25.30;99.50
15343;DHT22;7771;48.478;8.936;2022-10-16T13:09:05;25.10;99.40
15343;DHT22;7771;48.478;8.936;2022-10-16T13:14:22;25.00;99.40
15343;DHT22;7771;48.478;8.936;2022-10-16T13:16:57;25.00;99.40
15343;DHT22;7771;48.478;8.936;2022-10-16T13:19:31;25.00;99.20
15343;DHT22;7771;48.478;8.936;2022-10-16T13:22:10;25.00;99.30
15343;DHT22;7771;48.478;8.936;2022-10-16T13:24:43;25.00;99.60
15343;DHT22;7771;48.478;8.936;2022-10-16T13:27:13;25.00;99.30
15343;DHT22;7771;48.478;8.936;2022-10-16T13:29:37;25.00;99.10
15343;DHT22;7771;48.478;8.936;2022-10-16T13:32:07;25.00;99.60
15343;DHT22;7771;48.478;8.936;2022-10-16T13:34:31;25.00;99.80
15343;DHT22;7771;48.478;8.936;2022-10-16T13:36:59;25.00;99.70
15343;DHT22;7771;48.478;8.936;2022-10-16T13:39:27;25.00;99.50
15343;DHT22;7771;48.478;8.936;2022-10-16T13:42:10;25.00;99.70
15343;DHT22;7771;48.478;8.936;2022-10-16T13:44:41;25.00;99.50
15343;DHT22;7771;48.478;8.936;2022-10-16T13:47:10;25.00;99.40
15343;DHT22;7771;48.478;8.936;2022-10-16T13:49:34;25.00;99.70
15343;DHT22;7771;48.478;8.936;2022-10-16T13:52:01;25.00;99.30
15343;DHT22;7771;48.478;8.936;2022-10-16T13:54:28;25.00;99.00
15343;DHT22;7771;48.478;8.936;2022-10-16T13:56:55;25.00;99.10
15343;DHT22;7771;48.478;8.936;2022-10-16T13:59:24;25.00;99.40
15343;DHT22;7771;48.478;8.936;2022-10-16T14:01:51;24.90;99.10
15343;DHT22;7771;48.478;8.936;2022-10-16T14:04:17;25.00;99.40
15343;DHT22;7771;48.478;8.936;2022-10-16T14:06:44;25.00;99.30
15343;DHT22;7771;48.478;8.936;2022-10-16T14:09:15;25.00;99.10
15343;DHT22;7771;48.478;8.936;2022-10-16T14:11:44;24.90;98.90
15343;DHT22;7771;48.478;8.936;2022-10-16T14:14:11;24.90;99.20
15343;DHT22;7771;48.478;8.936;2022-10-16T14:16:38;24.80;99.20
15343;DHT22;7771;48.478;8.936;2022-10-16T14:19:05;24.80;99.30
15343;DHT22;7771;48.478;8.936;2022-10-16T14:21:32;24.80;99.10
15343;DHT22;7771;48.478;8.936;2022-10-16T14:23:58;24.70;99.10
15343;DHT22;7771;48.478;8.936;2022-10-16T14:26:27;24.70;98.90
15343;DHT22;7771;48.478;8.936;2022-10-16T14:29:11;24.70;99.00
15343;DHT22;7771;48.478;8.936;2022-10-16T14:31:37;24.70;99.40
15343;DHT22;7771;48.478;8.936;2022-10-16T14:34:21;24.70;99.50
15343;DHT22;7771;48.478;8.936;2022-10-16T14:36:33;24.70;99.50
15343;DHT22;7771;48.478;8.936;2022-10-16T14:39:02;24.60;99.50
15343;DHT22;7771;48.478;8.936;2022-10-16T14:41:28;24.60;99.30
15343;DHT22;7771;48.478;8.936;2022-10-16T14:43:56;24.60;99.30
15343;DHT22;7771;48.478;8.936;2022-10-16T14:46:22;24.60;99.30
15343;DHT22;7771;48.478;8.936;2022-10-16T14:48:49;24.50;99.30
15343;DHT22;7771;48.478;8.936;2022-10-16T14:51:15;24.50;99.30
15343;DHT22;7771;48.478;8.936;2022-10-16T14:53:41;24.40;99.30
15343;DHT22;7771;48.478;8.936;2022-10-16T14:56:17;24.40;99.90
15343;DHT22;7771;48.478;8.936;2022-10-16T14:58:43;24.30;99.50
15343;DHT22;7771;48.478;8.936;2022-10-16T15:01:10;24.30;99.40
15343;DHT22;7771;48.478;8.936;2022-10-16T15:03:36;24.30;99.50
15343;DHT22;7771;48.478;8.936;2022-10-16T15:06:03;24.20;99.50
15343;DHT22;7771;48.478;8.936;2022-10-16T15:08:30;24.20;99.90
15343;DHT22;7771;48.478;8.936;2022-10-16T15:10:57;24.20;99.70
15343;DHT22;7771;48.478;8.936;2022-10-16T15:13:23;24.20;99.90
15343;DHT22;7771;48.478;8.936;2022-10-16T15:15:50;24.10;99.90
15343;DHT22;7771;48.478;8.936;2022-10-16T15:18:17;24.10;99.90
15343;DHT22;7771;48.478;8.936;2022-10-16T15:20:43;24.00;99.90
15343;DHT22;7771;48.478;8.936;2022-10-16T15:23:14;24.00;99.90
15343;DHT22;7771;48.478;8.936;2022-10-16T15:25:44;23.90;99.90
15343;DHT22;7771;48.478;8.936;2022-10-16T15:28:11;23.90;99.90
15343;DHT22;7771;48.478;8.936;2022-10-16T15:30:38;23.80;99.90
15343;DHT22;7771;48.478;8.936;2022-10-16T15:33:08;23.80;99.90
15343;DHT22;7771;48.478;8.936;2022-10-16T15:35:32;23.80;99.90
15343;DHT22;7771;48.478;8.936;2022-10-16T15:37:58;23.70;99.90
15343;DHT22;7771;48.478;8.936;2022-10-16T15:40:25;23.70;99.90
15343;DHT22;7771;48.478;8.936;2022-10-16T15:42:51;23.60;99.90
15343;DHT22;7771;48.478;8.936;2022-10-16T15:45:19;23.60;99.90
15343;DHT22;7771;48.478;8.936;2022-10-16T15:47:45;23.50;99.90
15343;DHT22;7771;48.478;8.936;2022-10-16T15:50:12;23.40;99.90
15343;DHT22;7771;48.478;8.936;2022-10-16T15:52:39;23.40;99.90
15343;DHT22;7771;48.478;8.936;2022-10-16T15:55:08;23.30;99.90
15343;DHT22;7771;48.478;8.936;2022-10-16T15:57:35;23.30;99.90
15343;DHT22;7771;48.478;8.936;2022-10-16T16:00:01;23.20;99.90
15343;DHT22;7771;48.478;8.936;2022-10-16T16:02:29;23.20;99.90
15343;DHT22;7771;48.478;8.936;2022-10-16T16:04:58;23.10;99.90
15343;DHT22;7771;48.478;8.936;2022-10-16T16:07:28;23.10;99.90
15343;DHT22;7771;48.478;8.936;2022-10-16T16:09:56;23.00;99.90
15343;DHT22;7771;48.478;8.936;2022-10-16T16:12:24;22.90;99.90
15343;DHT22;7771;48.478;8.936;2022-10-16T16:14:56;22.90;99.90
15343;DHT22;7771;48.478;8.936;2022-10-16T16:17:26;22.80;99.90
15343;DHT22;7771;48.478;8.936;2022-10-16T16:19:55;22.70;99.90
15343;DHT22;7771;48.478;8.936;2022-10-16T16:22:25;22.70;99.90